sensor_id;sensor_type;location;lat;lon;timestamp;pressure;altitude;pressure_sealevel;temperature;humidity
79455;BME280;68900;52.134;5.420;2023-04-29T00:01:49;101607.69;;;9.77;88.73
79455;BME280;68900;52.134;5.420;2023-04-29T00:04:17;101609.91;;;9.72;88.19
79455;BME280;68900;52.134;5.420;2023-04-29T00:06:45;101612.63;;;9.72;88.26
79455;BME280;68900;52.134;5.420;2023-04-29T00:09:13;101611.03;;;9.69;88.63
79455;BME280;68900;52.134;5.420;2023-04-29T00:11:42;101616.66;;;9.66;88.56
79455;BME280;68900;52.134;5.420;2023-04-29T00:14:11;101620.00;;;9.70;88.47
79455;BME280;68900;52.134;5.420;2023-04-29T00:16:44;101615.31;;;9.72;88.84
79455;BME280;68900;52.134;5.420;2023-04-29T00:19:12;101616.31;;;9.71;88.07
79455;BME280;68900;52.134;5.420;2023-04-29T00:21:40;101617.88;;;9.73;87.65
79455;BME280;68900;52.134;5.420;2023-04-29T00:24:07;101619.84;;;9.71;88.18
79455;BME280;68900;52.134;5.420;2023-04-29T00:26:34;101627.09;;;9.71;87.72
79455;BME280;68900;52.134;5.420;2023-04-29T00:29:01;101625.00;;;9.74;88.05
79455;BME280;68900;52.134;5.420;2023-04-29T00:31:28;101628.66;;;9.73;88.22
79455;BME280;68900;52.134;5.420;2023-04-29T00:33:56;101632.47;;;9.71;88.40
79455;BME280;68900;52.134;5.420;2023-04-29T00:44:31;101641.16;;;9.63;87.97
79455;BME280;68900;52.134;5.420;2023-04-29T00:46:57;101641.28;;;9.62;88.30
79455;BME280;68900;52.134;5.420;2023-04-29T00:49:26;101640.47;;;9.61;88.32
79455;BME280;68900;52.134;5.420;2023-04-29T00:51:55;101642.88;;;9.64;88.59
79455;BME280;68900;52.134;5.420;2023-04-29T00:54:37;101644.63;;;9.65;88.33
79455;BME280;68900;52.134;5.420;2023-04-29T00:57:04;101647.78;;;9.59;88.36
79455;BME280;68900;52.134;5.420;2023-04-29T00:59:36;101642.16;;;9.62;87.99
79455;BME280;68900;52.134;5.420;2023-04-29T01:02:03;101650.97;;;9.64;88.26
79455;BME280;68900;52.134;5.420;2023-04-29T01:07:29;101656.00;;;9.58;88.17
79455;BME280;68900;52.134;5.420;2023-04-29T01:10:17;101660.78;;;9.54;87.97
79455;BME280;68900;52.134;5.420;2023-04-29T01:13:06;101661.75;;;9.53;88.33
79455;BME280;68900;52.134;5.420;2023-04-29T01:18:11;101677.06;;;9.53;88.57
79455;BME280;68900;52.134;5.420;2023-04-29T01:20:41;101674.63;;;9.50;88.20
79455;BME280;68900;52.134;5.420;2023-04-29T01:23:10;101678.28;;;9.49;88.62
79455;BME280;68900;52.134;5.420;2023-04-29T01:25:38;101685.50;;;9.48;88.59
79455;BME280;68900;52.134;5.420;2023-04-29T01:28:15;101673.16;;;9.46;88.39
79455;BME280;68900;52.134;5.420;2023-04-29T01:33:39;101680.50;;;9.44;87.80
79455;BME280;68900;52.134;5.420;2023-04-29T01:36:25;101687.38;;;9.48;87.81
79455;BME280;68900;52.134;5.420;2023-04-29T01:39:15;101689.91;;;9.49;88.21
79455;BME280;68900;52.134;5.420;2023-04-29T01:42:14;101688.94;;;9.50;87.91
79455;BME280;68900;52.134;5.420;2023-04-29T01:44:44;101693.84;;;9.45;87.85
79455;BME280;68900;52.134;5.420;2023-04-29T01:47:13;101694.72;;;9.46;87.82
79455;BME280;68900;52.134;5.420;2023-04-29T01:49:48;101692.88;;;9.46;88.12
79455;BME280;68900;52.134;5.420;2023-04-29T01:52:15;101689.91;;;9.49;88.35
79455;BME280;68900;52.134;5.420;2023-04-29T01:54:42;101692.63;;;9.49;88.11
79455;BME280;68900;52.134;5.420;2023-04-29T01:57:18;101694.22;;;9.52;88.09
79455;BME280;68900;52.134;5.420;2023-04-29T01:59:45;101701.44;;;9.51;88.03
79455;BME280;68900;52.134;5.420;2023-04-29T02:02:12;101696.16;;;9.50;88.31
79455;BME280;68900;52.134;5.420;2023-04-29T02:04:40;101695.19;;;9.51;88.13
79455;BME280;68900;52.134;5.420;2023-04-29T02:07:08;101701.31;;;9.53;88.09
79455;BME280;68900;52.134;5.420;2023-04-29T02:09:36;101706.84;;;9.51;87.55
79455;BME280;68900;52.134;5.420;2023-04-29T02:12:03;101705.84;;;9.52;87.75
79455;BME280;68900;52.134;5.420;2023-04-29T02:14:29;101713.19;;;9.50;88.17
79455;BME280;68900;52.134;5.420;2023-04-29T02:16:57;101707.81;;;9.50;88.04
79455;BME280;68900;52.134;5.420;2023-04-29T02:19:31;101711.47;;;9.49;88.11
79455;BME280;68900;52.134;5.420;2023-04-29T02:22:03;101718.31;;;9.53;88.27
79455;BME280;68900;52.134;5.420;2023-04-29T02:39:43;101735.59;;;9.51;87.63
79455;BME280;68900;52.134;5.420;2023-04-29T02:42:10;101738.19;;;9.52;87.98
79455;BME280;68900;52.134;5.420;2023-04-29T02:44:38;101745.03;;;9.56;87.90
79455;BME280;68900;52.134;5.420;2023-04-29T02:47:06;101751.13;;;9.58;88.25
79455;BME280;68900;52.134;5.420;2023-04-29T02:49:32;101749.41;;;9.57;87.28
79455;BME280;68900;52.134;5.420;2023-04-29T02:51:59;101755.66;;;9.58;87.21
79455;BME280;68900;52.134;5.420;2023-04-29T02:54:26;101761.91;;;9.58;87.64
79455;BME280;68900;52.134;5.420;2023-04-29T02:56:54;101753.97;;;9.57;87.46
79455;BME280;68900;52.134;5.420;2023-04-29T02:59:20;101755.66;;;9.58;87.57
79455;BME280;68900;52.134;5.420;2023-04-29T03:01:47;101763.75;;;9.58;87.08
79455;BME280;68900;52.134;5.420;2023-04-29T03:04:14;101758.88;;;9.52;87.48
79455;BME280;68900;52.134;5.420;2023-04-29T03:06:41;101764.38;;;9.50;87.42
79455;BME280;68900;52.134;5.420;2023-04-29T03:09:09;101768.03;;;9.49;87.59
79455;BME280;68900;52.134;5.420;2023-04-29T03:11:36;101764.25;;;9.52;87.24
79455;BME280;68900;52.134;5.420;2023-04-29T03:14:05;101778.44;;;9.54;87.40
79455;BME280;68900;52.134;5.420;2023-04-29T03:16:32;101776.88;;;9.51;86.48
79455;BME280;68900;52.134;5.420;2023-04-29T03:19:00;101779.56;;;9.51;87.15
79455;BME280;68900;52.134;5.420;2023-04-29T03:21:28;101779.56;;;9.51;86.79
79455;BME280;68900;52.134;5.420;2023-04-29T03:24:09;101787.63;;;9.51;86.60
79455;BME280;68900;52.134;5.420;2023-04-29T03:26:38;101785.81;;;9.52;86.40
79455;BME280;68900;52.134;5.420;2023-04-29T03:29:05;101790.34;;;9.51;86.60
79455;BME280;68900;52.134;5.420;2023-04-29T03:31:32;101788.84;;;9.47;86.11
79455;BME280;68900;52.134;5.420;2023-04-29T03:34:02;101787.03;;;9.48;86.20
79455;BME280;68900;52.134;5.420;2023-04-29T03:36:29;101789.84;;;9.46;85.95
79455;BME280;68900;52.134;5.420;2023-04-29T03:38:57;101792.41;;;9.48;85.36
79455;BME280;68900;52.134;5.420;2023-04-29T03:41:26;101780.63;;;9.49;85.38
79455;BME280;68900;52.134;5.420;2023-04-29T03:43:54;101794.84;;;9.51;85.20
79455;BME280;68900;52.134;5.420;2023-04-29T03:46:26;101796.69;;;9.50;84.56
79455;BME280;68900;52.134;5.420;2023-04-29T03:48:53;101792.28;;;9.49;84.58
79455;BME280;68900;52.134;5.420;2023-04-29T03:51:23;101797.66;;;9.49;84.51
79455;BME280;68900;52.134;5.420;2023-04-29T03:53:49;101808.44;;;9.49;83.48
79455;BME280;68900;52.134;5.420;2023-04-29T03:56:17;101806.50;;;9.51;84.21
79455;BME280;68900;52.134;5.420;2023-04-29T03:58:44;101808.31;;;9.51;84.26
79455;BME280;68900;52.134;5.420;2023-04-29T04:01:11;101809.28;;;9.50;83.71
79455;BME280;68900;52.134;5.420;2023-04-29T04:03:42;101808.44;;;9.49;83.55
79455;BME280;68900;52.134;5.420;2023-04-29T04:06:09;101811.00;;;9.51;83.95
79455;BME280;68900;52.134;5.420;2023-04-29T04:08:37;101822.66;;;9.51;83.63
79455;BME280;68900;52.134;5.420;2023-04-29T04:11:07;101816.41;;;9.51;83.43
79455;BME280;68900;52.134;5.420;2023-04-29T04:13:35;101823.63;;;9.50;83.56
79455;BME280;68900;52.134;5.420;2023-04-29T04:16:04;101818.34;;;9.49;83.13
79455;BME280;68900;52.134;5.420;2023-04-29T04:18:44;101829.97;;;9.49;83.12
79455;BME280;68900;52.134;5.420;2023-04-29T04:21:11;101828.25;;;9.48;83.12
79455;BME280;68900;52.134;5.420;2023-04-29T04:23:39;101830.13;;;9.48;82.76
79455;BME280;68900;52.134;5.420;2023-04-29T04:26:07;101831.97;;;9.47;82.19
79455;BME280;68900;52.134;5.420;2023-04-29T04:28:37;101840.75;;;9.49;81.89
79455;BME280;68900;52.134;5.420;2023-04-29T04:31:07;101836.22;;;9.50;82.03
79455;BME280;68900;52.134;5.420;2023-04-29T04:33:36;101842.47;;;9.50;82.17
79455;BME280;68900;52.134;5.420;2023-04-29T04:36:03;101839.91;;;9.49;82.07
79455;BME280;68900;52.134;5.420;2023-04-29T04:38:29;101835.38;;;9.49;82.26
79455;BME280;68900;52.134;5.420;2023-04-29T04:40:58;101850.66;;;9.49;82.81
79455;BME280;68900;52.134;5.420;2023-04-29T04:43:25;101851.78;;;9.46;83.15
79455;BME280;68900;52.134;5.420;2023-04-29T04:45:53;101856.19;;;9.47;82.58
79455;BME280;68900;52.134;5.420;2023-04-29T04:48:21;101857.88;;;9.48;82.98
79455;BME280;68900;52.134;5.420;2023-04-29T04:50:54;101861.59;;;9.47;83.22
79455;BME280;68900;52.134;5.420;2023-04-29T04:53:20;101870.53;;;9.48;83.16
79455;BME280;68900;52.134;5.420;2023-04-29T04:55:49;101871.34;;;9.48;83.62
79455;BME280;68900;52.134;5.420;2023-04-29T04:58:17;101877.59;;;9.49;84.00
79455;BME280;68900;52.134;5.420;2023-04-29T05:00:44;101881.16;;;9.49;83.77
79455;BME280;68900;52.134;5.420;2023-04-29T05:03:11;101882.78;;;9.52;83.70
79455;BME280;68900;52.134;5.420;2023-04-29T05:05:41;101883.84;;;9.49;83.63
79455;BME280;68900;52.134;5.420;2023-04-29T05:08:11;101888.28;;;9.50;83.50
79455;BME280;68900;52.134;5.420;2023-04-29T05:10:37;101889.75;;;9.54;83.57
79455;BME280;68900;52.134;5.420;2023-04-29T05:13:04;101897.81;;;9.54;84.30
79455;BME280;68900;52.134;5.420;2023-04-29T05:18:06;101896.00;;;9.55;83.02
79455;BME280;68900;52.134;5.420;2023-04-29T05:20:33;101898.56;;;9.56;83.75
79455;BME280;68900;52.134;5.420;2023-04-29T05:23:00;101904.69;;;9.58;83.60
79455;BME280;68900;52.134;5.420;2023-04-29T05:25:30;101899.09;;;9.61;83.91
79455;BME280;68900;52.134;5.420;2023-04-29T05:27:56;101906.31;;;9.61;84.49
79455;BME280;68900;52.134;5.420;2023-04-29T06:53:08;102023.97;;;10.41;82.43
79455;BME280;68900;52.134;5.420;2023-04-29T06:55:35;102025.69;;;10.42;82.09
79455;BME280;68900;52.134;5.420;2023-04-29T06:58:02;102026.19;;;10.47;82.36
79455;BME280;68900;52.134;5.420;2023-04-29T07:00:30;102025.81;;;10.52;82.13
79455;BME280;68900;52.134;5.420;2023-04-29T07:02:59;102028.78;;;10.49;81.56
79455;BME280;68900;52.134;5.420;2023-04-29T07:05:51;102035.50;;;10.54;82.28
79455;BME280;68900;52.134;5.420;2023-04-29T07:08:18;102038.22;;;10.66;81.79
79455;BME280;68900;52.134;5.420;2023-04-29T07:10:56;102035.75;;;10.74;81.60
79455;BME280;68900;52.134;5.420;2023-04-29T07:13:25;102039.09;;;10.77;81.53
79455;BME280;68900;52.134;5.420;2023-04-29T07:15:52;102048.50;;;10.83;80.96
79455;BME280;68900;52.134;5.420;2023-04-29T07:18:19;102049.75;;;10.90;80.16
79455;BME280;68900;52.134;5.420;2023-04-29T07:20:46;102043.22;;;10.92;80.56
79455;BME280;68900;52.134;5.420;2023-04-29T07:27:36;102053.25;;;11.35;79.61
79455;BME280;68900;52.134;5.420;2023-04-29T08:32:25;102120.69;;;11.90;70.99
79455;BME280;68900;52.134;5.420;2023-04-29T08:34:52;102118.72;;;11.92;71.48
79455;BME280;68900;52.134;5.420;2023-04-29T08:37:19;102121.44;;;12.13;70.02
79455;BME280;68900;52.134;5.420;2023-04-29T08:42:34;102114.28;;;12.65;70.10
79455;BME280;68900;52.134;5.420;2023-04-29T08:45:02;102115.09;;;12.86;68.63
79455;BME280;68900;52.134;5.420;2023-04-29T08:47:32;102126.53;;;12.69;68.45
79455;BME280;68900;52.134;5.420;2023-04-29T08:50:04;102131.03;;;12.59;68.75
79455;BME280;68900;52.134;5.420;2023-04-29T08:52:33;102128.41;;;12.48;68.32
79455;BME280;68900;52.134;5.420;2023-04-29T08:55:01;102128.19;;;12.39;68.63
79455;BME280;68900;52.134;5.420;2023-04-29T08:57:29;102130.22;;;12.26;68.12
79455;BME280;68900;52.134;5.420;2023-04-29T09:00:10;102134.75;;;12.37;68.34
79455;BME280;68900;52.134;5.420;2023-04-29T09:02:55;102137.56;;;12.35;68.53
79455;BME280;68900;52.134;5.420;2023-04-29T09:05:25;102138.97;;;12.30;68.21
79455;BME280;68900;52.134;5.420;2023-04-29T09:08:00;102143.25;;;12.32;68.30
79455;BME280;68900;52.134;5.420;2023-04-29T09:10:35;102139.72;;;12.53;68.39
79455;BME280;68900;52.134;5.420;2023-04-29T09:13:27;102141.53;;;12.73;67.41
79455;BME280;68900;52.134;5.420;2023-04-29T09:16:02;102144.97;;;12.75;67.57
79455;BME280;68900;52.134;5.420;2023-04-29T09:18:47;102147.00;;;12.82;67.77
79455;BME280;68900;52.134;5.420;2023-04-29T09:21:19;102140.44;;;13.06;67.71
79455;BME280;68900;52.134;5.420;2023-04-29T09:23:56;102155.25;;;13.32;66.98
79455;BME280;68900;52.134;5.420;2023-04-29T09:26:23;102148.44;;;13.38;65.89
79455;BME280;68900;52.134;5.420;2023-04-29T09:29:12;102147.94;;;13.53;65.31
79455;BME280;68900;52.134;5.420;2023-04-29T09:31:46;102153.63;;;13.60;64.39
79455;BME280;68900;52.134;5.420;2023-04-29T09:34:34;102152.78;;;13.50;64.61
79455;BME280;68900;52.134;5.420;2023-04-29T09:37:25;102164.16;;;13.44;65.02
79455;BME280;68900;52.134;5.420;2023-04-29T09:40:26;102162.06;;;13.57;65.08
79455;BME280;68900;52.134;5.420;2023-04-29T09:43:17;102166.66;;;13.66;64.67
79455;BME280;68900;52.134;5.420;2023-04-29T09:45:58;102163.84;;;13.77;64.68
79455;BME280;68900;52.134;5.420;2023-04-29T09:48:30;102164.94;;;13.75;63.65
79455;BME280;68900;52.134;5.420;2023-04-29T09:51:10;102164.81;;;13.66;63.35
79455;BME280;68900;52.134;5.420;2023-04-29T09:53:51;102173.22;;;13.63;64.97
79455;BME280;68900;52.134;5.420;2023-04-29T09:56:51;102174.50;;;13.69;63.96
79455;BME280;68900;52.134;5.420;2023-04-29T09:59:21;102181.13;;;13.46;62.96
79455;BME280;68900;52.134;5.420;2023-04-29T10:02:13;102180.75;;;13.60;63.95
79455;BME280;68900;52.134;5.420;2023-04-29T10:04:46;102175.22;;;13.71;62.74
79455;BME280;68900;52.134;5.420;2023-04-29T10:07:15;102171.97;;;13.77;61.98
79455;BME280;68900;52.134;5.420;2023-04-29T10:09:55;102168.00;;;13.91;61.90
79455;BME280;68900;52.134;5.420;2023-04-29T10:12:24;102179.16;;;14.16;61.46
79455;BME280;68900;52.134;5.420;2023-04-29T10:18:18;102175.00;;;14.03;62.03
79455;BME280;68900;52.134;5.420;2023-04-29T10:20:49;102181.28;;;13.94;61.63
79455;BME280;68900;52.134;5.420;2023-04-29T10:23:32;102171.81;;;13.79;61.91
79455;BME280;68900;52.134;5.420;2023-04-29T10:26:14;102181.06;;;13.66;62.11
79455;BME280;68900;52.134;5.420;2023-04-29T10:28:55;102169.31;;;13.96;61.15
79455;BME280;68900;52.134;5.420;2023-04-29T10:31:37;102170.88;;;14.08;61.44
79455;BME280;68900;52.134;5.420;2023-04-29T10:34:05;102164.03;;;14.14;61.51
79455;BME280;68900;52.134;5.420;2023-04-29T10:36:32;102180.31;;;14.14;60.93
79455;BME280;68900;52.134;5.420;2023-04-29T10:39:02;102174.59;;;14.07;61.39
79455;BME280;68900;52.134;5.420;2023-04-29T10:41:36;102177.28;;;14.07;61.15
79455;BME280;68900;52.134;5.420;2023-04-29T10:44:04;102185.84;;;14.03;59.49
79455;BME280;68900;52.134;5.420;2023-04-29T10:46:31;102188.16;;;14.17;61.52
79455;BME280;68900;52.134;5.420;2023-04-29T10:49:02;102182.75;;;14.27;60.23
79455;BME280;68900;52.134;5.420;2023-04-29T10:51:39;102192.78;;;14.36;59.22
79455;BME280;68900;52.134;5.420;2023-04-29T10:54:26;102183.03;;;14.14;59.95
79455;BME280;68900;52.134;5.420;2023-04-29T10:56:53;102180.88;;;14.08;60.62
79455;BME280;68900;52.134;5.420;2023-04-29T11:01:55;102176.75;;;14.13;59.56
79455;BME280;68900;52.134;5.420;2023-04-29T11:05:10;102174.91;;;14.24;60.11
79455;BME280;68900;52.134;5.420;2023-04-29T11:08:14;102175.59;;;14.26;60.28
79455;BME280;68900;52.134;5.420;2023-04-29T11:11:02;102174.72;;;14.35;59.77
79455;BME280;68900;52.134;5.420;2023-04-29T11:13:44;102181.34;;;14.42;59.33
79455;BME280;68900;52.134;5.420;2023-04-29T11:16:24;102184.63;;;14.36;59.60
79455;BME280;68900;52.134;5.420;2023-04-29T11:19:08;102177.44;;;14.35;58.89
79455;BME280;68900;52.134;5.420;2023-04-29T11:21:42;102181.50;;;14.40;57.70
79455;BME280;68900;52.134;5.420;2023-04-29T11:24:30;102186.78;;;14.42;58.61
79455;BME280;68900;52.134;5.420;2023-04-29T11:27:07;102190.63;;;14.58;59.63
79455;BME280;68900;52.134;5.420;2023-04-29T11:33:27;102184.41;;;15.04;56.88
79455;BME280;68900;52.134;5.420;2023-04-29T11:36:19;102182.81;;;15.12;56.83
79455;BME280;68900;52.134;5.420;2023-04-29T11:38:46;102179.28;;;15.38;55.32
79455;BME280;68900;52.134;5.420;2023-04-29T11:41:14;102184.16;;;15.35;55.87
79455;BME280;68900;52.134;5.420;2023-04-29T11:43:45;102183.00;;;15.37;55.23
79455;BME280;68900;52.134;5.420;2023-04-29T11:46:33;102177.56;;;15.37;54.18
79455;BME280;68900;52.134;5.420;2023-04-29T11:49:02;102190.38;;;15.45;56.03
79455;BME280;68900;52.134;5.420;2023-04-29T11:51:39;102177.44;;;15.66;55.71
79455;BME280;68900;52.134;5.420;2023-04-29T11:54:09;102173.81;;;15.75;55.81
79455;BME280;68900;52.134;5.420;2023-04-29T11:56:43;102184.31;;;15.70;54.09
79455;BME280;68900;52.134;5.420;2023-04-29T11:59:11;102186.97;;;15.53;53.56
79455;BME280;68900;52.134;5.420;2023-04-29T12:01:38;102192.50;;;15.61;53.89
79455;BME280;68900;52.134;5.420;2023-04-29T12:04:14;102192.13;;;15.46;54.77
79455;BME280;68900;52.134;5.420;2023-04-29T12:06:52;102183.50;;;15.60;53.94
79455;BME280;68900;52.134;5.420;2023-04-29T12:09:22;102190.69;;;15.79;55.60
79455;BME280;68900;52.134;5.420;2023-04-29T12:11:53;102191.97;;;15.84;54.79
79455;BME280;68900;52.134;5.420;2023-04-29T12:14:24;102189.44;;;15.73;54.59
79455;BME280;68900;52.134;5.420;2023-04-29T12:16:55;102185.81;;;15.55;53.73
79455;BME280;68900;52.134;5.420;2023-04-29T12:19:23;102180.22;;;15.57;54.39
79455;BME280;68900;52.134;5.420;2023-04-29T12:22:14;102185.16;;;15.71;54.01
79455;BME280;68900;52.134;5.420;2023-04-29T12:24:41;102184.91;;;15.64;54.25
79455;BME280;68900;52.134;5.420;2023-04-29T12:27:11;102189.50;;;15.81;55.16
79455;BME280;68900;52.134;5.420;2023-04-29T12:29:39;102183.84;;;15.75;54.34
79455;BME280;68900;52.134;5.420;2023-04-29T12:32:23;102183.56;;;15.96;54.77
79455;BME280;68900;52.134;5.420;2023-04-29T12:34:57;102173.25;;;15.99;54.41
79455;BME280;68900;52.134;5.420;2023-04-29T12:37:25;102174.56;;;16.13;53.32
79455;BME280;68900;52.134;5.420;2023-04-29T12:39:54;102172.53;;;16.15;54.35
79455;BME280;68900;52.134;5.420;2023-04-29T12:42:42;102174.09;;;16.17;55.46
79455;BME280;68900;52.134;5.420;2023-04-29T12:45:32;102177.22;;;16.22;54.86
79455;BME280;68900;52.134;5.420;2023-04-29T12:48:29;102187.41;;;16.20;54.02
79455;BME280;68900;52.134;5.420;2023-04-29T12:51:17;102188.59;;;16.18;52.56
79455;BME280;68900;52.134;5.420;2023-04-29T12:54:04;102191.38;;;16.08;53.63
79455;BME280;68900;52.134;5.420;2023-04-29T12:56:32;102189.72;;;15.98;52.93
79455;BME280;68900;52.134;5.420;2023-04-29T12:59:19;102190.91;;;16.13;53.74
79455;BME280;68900;52.134;5.420;2023-04-29T13:02:10;102194.19;;;16.16;52.99
79455;BME280;68900;52.134;5.420;2023-04-29T13:05:02;102196.97;;;16.07;53.77
79455;BME280;68900;52.134;5.420;2023-04-29T13:07:49;102192.59;;;16.14;53.47
79455;BME280;68900;52.134;5.420;2023-04-29T13:10:41;102189.72;;;16.15;55.18
79455;BME280;68900;52.134;5.420;2023-04-29T13:13:15;102190.66;;;16.06;52.77
79455;BME280;68900;52.134;5.420;2023-04-29T13:15:48;102199.75;;;16.15;54.60
79455;BME280;68900;52.134;5.420;2023-04-29T13:18:17;102200.25;;;16.28;54.31
79455;BME280;68900;52.134;5.420;2023-04-29T13:20:45;102198.00;;;16.41;52.99
79455;BME280;68900;52.134;5.420;2023-04-29T13:23:13;102198.38;;;16.46;51.86
79455;BME280;68900;52.134;5.420;2023-04-29T13:25:44;102185.53;;;16.56;51.82
79455;BME280;68900;52.134;5.420;2023-04-29T13:28:12;102185.78;;;16.63;52.24
79455;BME280;68900;52.134;5.420;2023-04-29T13:30:43;102195.41;;;16.75;52.46
79455;BME280;68900;52.134;5.420;2023-04-29T13:33:31;102197.84;;;16.78;50.83
79455;BME280;68900;52.134;5.420;2023-04-29T13:36:06;102200.19;;;16.73;52.92
79455;BME280;68900;52.134;5.420;2023-04-29T13:38:34;102202.91;;;16.73;52.26
79455;BME280;68900;52.134;5.420;2023-04-29T13:41:11;102200.78;;;16.49;51.13
79455;BME280;68900;52.134;5.420;2023-04-29T13:43:45;102208.91;;;16.41;52.51
79455;BME280;68900;52.134;5.420;2023-04-29T13:46:19;102201.09;;;16.46;51.98
79455;BME280;68900;52.134;5.420;2023-04-29T13:48:50;102208.13;;;16.49;51.24
79455;BME280;68900;52.134;5.420;2023-04-29T13:51:47;102203.00;;;16.63;52.84
79455;BME280;68900;52.134;5.420;2023-04-29T13:54:41;102208.13;;;16.66;51.75
79455;BME280;68900;52.134;5.420;2023-04-29T13:57:14;102206.84;;;16.43;52.17
79455;BME280;68900;52.134;5.420;2023-04-29T14:00:13;102211.31;;;16.44;52.09
79455;BME280;68900;52.134;5.420;2023-04-29T14:02:54;102221.81;;;16.57;51.99
79455;BME280;68900;52.134;5.420;2023-04-29T14:05:23;102225.94;;;16.43;52.86
79455;BME280;68900;52.134;5.420;2023-04-29T14:07:54;102220.47;;;16.43;50.64
79455;BME280;68900;52.134;5.420;2023-04-29T14:10:21;102227.13;;;16.41;51.97
79455;BME280;68900;52.134;5.420;2023-04-29T14:13:09;102227.31;;;16.47;51.49
79455;BME280;68900;52.134;5.420;2023-04-29T14:15:36;102228.13;;;16.57;51.20
79455;BME280;68900;52.134;5.420;2023-04-29T14:18:10;102227.34;;;16.65;49.82
79455;BME280;68900;52.134;5.420;2023-04-29T14:20:39;102227.25;;;16.57;51.41
79455;BME280;68900;52.134;5.420;2023-04-29T14:42:26;102240.28;;;16.45;51.23
79455;BME280;68900;52.134;5.420;2023-04-29T14:48:52;102247.00;;;16.68;49.94
79455;BME280;68900;52.134;5.420;2023-04-29T14:55:11;102238.91;;;16.59;49.29
79455;BME280;68900;52.134;5.420;2023-04-29T14:57:41;102250.38;;;16.35;50.65
79455;BME280;68900;52.134;5.420;2023-04-29T15:00:08;102250.38;;;16.35;49.79
79455;BME280;68900;52.134;5.420;2023-04-29T15:10:25;102247.34;;;16.38;48.76
79455;BME280;68900;52.134;5.420;2023-04-29T15:12:52;102252.50;;;16.41;48.94
79455;BME280;68900;52.134;5.420;2023-04-29T15:15:23;102249.84;;;16.31;49.26
79455;BME280;68900;52.134;5.420;2023-04-29T15:17:51;102252.78;;;16.38;48.97
79455;BME280;68900;52.134;5.420;2023-04-29T15:20:18;102259.16;;;16.29;49.67
79455;BME280;68900;52.134;5.420;2023-04-29T15:22:45;102256.69;;;16.35;48.96
79455;BME280;68900;52.134;5.420;2023-04-29T15:25:14;102258.16;;;16.30;49.70
79455;BME280;68900;52.134;5.420;2023-04-29T15:27:50;102258.22;;;16.38;49.26
79455;BME280;68900;52.134;5.420;2023-04-29T15:30:20;102260.94;;;16.38;50.16
79455;BME280;68900;52.134;5.420;2023-04-29T15:32:48;102264.13;;;16.33;49.25
79455;BME280;68900;52.134;5.420;2023-04-29T15:35:20;102267.59;;;16.35;50.52
79455;BME280;68900;52.134;5.420;2023-04-29T15:37:48;102271.56;;;16.41;49.57
79455;BME280;68900;52.134;5.420;2023-04-29T15:40:15;102266.31;;;16.30;49.43
79455;BME280;68900;52.134;5.420;2023-04-29T15:42:45;102260.25;;;16.18;50.20
79455;BME280;68900;52.134;5.420;2023-04-29T15:45:15;102271.69;;;16.22;49.28
79455;BME280;68900;52.134;5.420;2023-04-29T15:47:43;102267.03;;;16.32;50.17
79455;BME280;68900;52.134;5.420;2023-04-29T15:50:11;102263.44;;;16.31;49.68
79455;BME280;68900;52.134;5.420;2023-04-29T15:52:44;102261.28;;;16.35;49.23
79455;BME280;68900;52.134;5.420;2023-04-29T15:55:17;102268.50;;;16.26;49.29
79455;BME280;68900;52.134;5.420;2023-04-29T15:57:46;102276.50;;;16.28;50.41
79455;BME280;68900;52.134;5.420;2023-04-29T16:00:14;102272.53;;;16.22;49.74
79455;BME280;68900;52.134;5.420;2023-04-29T16:02:43;102273.75;;;16.10;50.93
79455;BME280;68900;52.134;5.420;2023-04-29T16:05:13;102275.56;;;16.19;50.31
79455;BME280;68900;52.134;5.420;2023-04-29T16:15:28;102284.94;;;16.07;49.68
79455;BME280;68900;52.134;5.420;2023-04-29T16:17:55;102288.06;;;16.12;49.91
79455;BME280;68900;52.134;5.420;2023-04-29T16:20:22;102296.94;;;16.14;49.14
79455;BME280;68900;52.134;5.420;2023-04-29T16:22:57;102285.34;;;16.12;50.22
79455;BME280;68900;52.134;5.420;2023-04-29T16:25:26;102283.19;;;16.16;49.00
79455;BME280;68900;52.134;5.420;2023-04-29T16:28:10;102285.91;;;16.16;49.59
79455;BME280;68900;52.134;5.420;2023-04-29T16:30:37;102291.53;;;16.05;48.16
79455;BME280;68900;52.134;5.420;2023-04-29T16:36:05;102303.31;;;15.68;48.32
79455;BME280;68900;52.134;5.420;2023-04-29T16:38:35;102303.19;;;15.60;47.43
79455;BME280;68900;52.134;5.420;2023-04-29T16:41:03;102302.63;;;15.47;45.40
79455;BME280;68900;52.134;5.420;2023-04-29T16:43:31;102309.41;;;15.33;45.20
79455;BME280;68900;52.134;5.420;2023-04-29T16:45:59;102305.25;;;15.29;44.49
79455;BME280;68900;52.134;5.420;2023-04-29T16:48:39;102307.00;;;15.21;44.81
79455;BME280;68900;52.134;5.420;2023-04-29T16:51:13;102301.41;;;15.03;43.77
79455;BME280;68900;52.134;5.420;2023-04-29T16:53:46;102310.72;;;15.00;43.46
79455;BME280;68900;52.134;5.420;2023-04-29T16:56:19;102306.44;;;14.98;42.85
79455;BME280;68900;52.134;5.420;2023-04-29T16:58:55;102307.00;;;14.82;42.55
79455;BME280;68900;52.134;5.420;2023-04-29T17:01:24;102312.44;;;14.73;41.92
79455;BME280;68900;52.134;5.420;2023-04-29T17:03:51;102309.00;;;14.61;43.74
79455;BME280;68900;52.134;5.420;2023-04-29T17:06:19;102308.72;;;14.64;43.14
79455;BME280;68900;52.134;5.420;2023-04-29T17:08:46;102309.28;;;14.68;44.15
79455;BME280;68900;52.134;5.420;2023-04-29T17:11:18;102313.31;;;14.73;42.32
79455;BME280;68900;52.134;5.420;2023-04-29T17:13:53;102314.03;;;14.66;42.49
79455;BME280;68900;52.134;5.420;2023-04-29T17:16:23;102308.13;;;14.51;42.20
79455;BME280;68900;52.134;5.420;2023-04-29T17:18:56;102307.81;;;14.44;43.84
79455;BME280;68900;52.134;5.420;2023-04-29T17:21:26;102316.09;;;14.43;42.91
79455;BME280;68900;52.134;5.420;2023-04-29T17:23:58;102315.69;;;14.38;44.12